• Join FlightAware (Why Join?)
  • Login
  • US Flag 
06:58AM EST


 

Airport Tracker/Info


-or-


 

Live Flight TrackerFlight Track Log ✈ GJS3618 ✈ 31-Aug-2013 ✈ KOMA - KDEN

Flight Track Log - Related Links

Times and Time Zones

All times are in EDT time to prevent confusion due to time zone crossing. See the GJS3618 flight status page for this flight to view local times or setup timezone preferences in your user account.

Time Position Orientation Groundspeed Altitude Reporting Facility
EDT Latitude Longitude Course Direction KTS MPH feet Rate Location/Type
07:53AM 41.3186 -95.9003 270° West 159 183 1,500  Level Minneapolis Center
07:54AM 41.3633 -95.9450 323° Northwest 206 237 3,800 2,220 Climbing Minneapolis Center
07:55AM 41.3714 -96.0356 277° West 277 319 6,200 2,340 Climbing Minneapolis Center
07:57AM 41.3164 -96.4131 276° West  Level FlightAware Approximate
07:57AM 41.3739 -96.1264 272° West 267 307 8,800  Level Minneapolis Center
07:58AM 41.3167 -96.5458 270° West  Level FlightAware Approximate
07:58AM 41.3744 -96.2297 270° West 276 318 11,400  Level Minneapolis Center
07:59AM 41.3667 -96.3431 265° West 300 345 13,100 1,560 Climbing Minneapolis Center
08:00AM 41.3519 -96.4717 261° West 341 392 14,600 1,680 Climbing Minneapolis Center
08:01AM 41.3361 -96.6078 261° West 365 420 16,600 1,860 Climbing Minneapolis Center
08:02AM 41.3200 -96.7464 261° West 376 433 18,400 1,740 Climbing Minneapolis Center
08:03AM 41.3033 -96.8886 261° West 384 442 20,200 1,620 Climbing Minneapolis Center
08:04AM 41.2811 -97.0625 260° West 394 453 21,700 1,440 Climbing Minneapolis Center
08:05AM 41.2631 -97.2131 261° West 408 470 23,200 1,320 Climbing Minneapolis Center
08:06AM 41.2442 -97.3656 261° West 416 479 24,400 1,140 Climbing Minneapolis Center
08:07AM 41.2250 -97.5136 260° West 421 484 25,600 1,260 Climbing Minneapolis Center
08:08AM 41.2053 -97.6686 260° West 425 489 27,000 1,260 Climbing Minneapolis Center
08:09AM 41.1867 -97.8239 261° West 425 489 28,200 1,200 Climbing Minneapolis Center
08:10AM 41.1664 -97.9792 260° West 426 490 29,500 1,320 Climbing Minneapolis Center
08:11AM 41.1431 -98.1614 260° West 420 483 31,200 1,260 Climbing Minneapolis Center
08:12AM 41.1242 -98.3103 260° West 412 474 32,300 1,020 Climbing Minneapolis Center
08:13AM 41.1031 -98.4656 260° West 413 475 33,300 1,020 Climbing Minneapolis Center
08:14AM 41.0825 -98.6153 260° West 414 476 34,400 1,080 Climbing Minneapolis Center
08:15AM 41.0611 -98.7647 259° West 413 475 35,600 1,080 Climbing Minneapolis Center
08:16AM 41.0386 -98.9133 259° West 412 474 36,600 960 Climbing Minneapolis Center
08:17AM 41.0222 -99.0550 261° West 394 453 37,600 660 Climbing Minneapolis Center
08:18AM 41.0011 -99.2072 260° West 394 453 38,000 180 Climbing Minneapolis Center
08:19AM 40.9803 -99.3539 259° West 401 461 38,000  Level Minneapolis Center
08:20AM 40.9544 -99.5339 259° West 414 476 38,000  Level Denver Center
08:21AM 40.9325 -99.6864 259° West 420 483 38,000  Level Denver Center
08:22AM 40.9103 -99.8356 259° West 422 486 38,000  Level Denver Center
08:23AM 40.8853 -100.0050 259° West 421 484 38,000  Level Denver Center
08:24AM 40.8644 -100.1492 259° West 419 482 38,000  Level Denver Center
08:25AM 40.8419 -100.2931 258° West 419 482 38,000  Level Denver Center
08:26AM 40.8206 -100.4367 259° West 419 482 38,000  Level Denver Center
08:27AM 40.7936 -100.6025 258° West 411 473 38,000  Level Denver Center
08:28AM 40.7653 -100.7592 257° West 448 516 38,000  Level Denver Center
08:29AM 40.7444 -100.9086 260° West 434 499 38,000  Level Denver Center
08:30AM 40.7217 -101.0511 258° West 418 481 38,000  Level Denver Center
08:31AM 40.7011 -101.1706 257° West 419 482 38,000  Level Denver Center
08:32AM 40.6681 -101.3619 257° West 422 486 38,000  Level Denver Center
08:33AM 40.6433 -101.5064 257° West 423 487 38,000  Level Denver Center
08:34AM 40.6131 -101.6750 257° West 423 487 38,000  Level Denver Center
08:35AM 40.5869 -101.8189 257° West 423 487 38,000  Level Denver Center
08:36AM 40.5608 -101.9622 257° West 422 486 38,000  Level Denver Center
08:37AM 40.5331 -102.1067 256° West 426 490 38,000  Level Denver Center
08:38AM 40.5014 -102.2747 256° West 425 489 38,000  Level Denver Center
08:39AM 40.4750 -102.4206 257° West 428 493 38,000 -300 Level Denver Center
08:40AM 40.4478 -102.5636 256° West 424 488 37,500 -1,080 Descending Denver Center
08:41AM 40.4172 -102.7258 256° West 432 497 35,900 -1,620 Descending Denver Center
08:42AM 40.3883 -102.8819 256° West 439 505 34,300 -1,740 Descending Denver Center
08:43AM 40.3586 -103.0364 256° West 439 505 32,400 -1,980 Descending Denver Center
08:44AM 40.3314 -103.1847 257° West 421 484 30,400 -1,920 Descending Denver Center
08:45AM 40.3025 -103.3250 255° West 403 464 28,600 -1,920 Descending Denver Center
08:46AM 40.2764 -103.4675 257° West 404 465 26,600 -1,980 Descending Denver Center
08:47AM 40.2492 -103.6056 256° West 394 453 24,600 -2,160 Descending Denver Center
08:48AM 40.2175 -103.7608 255° West 389 448 22,300 -2,160 Descending Denver Center
08:50AM 40.1886 -103.8811 253° West 352 405 20,300 -1,860 Descending Denver Center
08:51AM 40.1400 -103.9833 238° Southwest 334 384 18,600 -1,620 Descending Denver Center
08:52AM 40.0911 -104.0889 239° Southwest 340 391 17,100 -1,560 Descending Denver Center
08:53AM 40.0436 -104.1903 239° Southwest 328 377 15,500 -1,320 Descending Denver Center
08:54AM 39.9992 -104.2881 239° Southwest 315 362 14,500 -1,080 Descending Denver Center
08:55AM 39.9528 -104.3853 238° Southwest 317 365 13,400 -1,080 Descending Denver Center
08:55AM 39.9167 -104.4500 234° Southwest 307 353 12,700 -1,200 Descending Denver TRACON
08:56AM 39.8500 -104.5000 210° Southwest 296 341 11,500 -900 Descending Denver TRACON
08:57AM 39.7833 -104.5000 180° South 254 292 11,000 -540 Descending Denver TRACON
08:58AM 39.7167 -104.5000 180° South 235 270 10,500 -780 Descending Denver TRACON
08:59AM 39.6500 -104.5000 180° South 223 257 9,500 -1,020 Descending Denver TRACON
09:00AM 39.6167 -104.5500 229° Southwest 220 253 8,500 -960 Descending Denver TRACON
09:01AM 39.6333 -104.6167 288° West 216 249 7,600 -780 Descending Denver TRACON
09:02AM 39.6833 -104.6333 346° North 187 215 7,000 -300 Descending Denver TRACON
09:03AM 39.7333 -104.6500 346° North 190 219 7,000 -300 Level Denver TRACON
09:04AM 39.7833 -104.6500 360° North 155 178 6,400 -720 Descending Denver TRACON
09:05AM 39.8167 -104.6500 360° North 150 173 5,600 -840 Descending Denver TRACON